Time;durP1;ratioP1;P1;durP2;ratioP2;P2;SDS_P1;SDS_P2;PMS_P1;PMS_P2;Temp;Humidity;BMP_temperature;BMP_pressure;BME280_temperature;BME280_humidity;BME280_pressure;Samples;Min_cycle;Max_cycle;Signal;HPM_P1;HPM_P2
2021/05/02 00:00:25;;;;;;;2.50;1.70;;;;;;;;;;5071713;28;20129;-81
2021/05/02 00:02:51;;;;;;;3.88;2.00;;;;;;;;;;5073320;28;20032;-80
2021/05/02 00:05:18;;;;;;;4.10;2.20;;;;;;;;;;5086507;28;20055;-82
2021/05/02 00:07:45;;;;;;;3.78;2.00;;;;;;;;;;5074206;28;20028;-83
2021/05/02 00:10:11;;;;;;;5.32;2.58;;;;;;;;;;5086302;28;20029;-82
2021/05/02 00:12:38;;;;;;;7.22;2.75;;;;;;;;;;5083250;28;20494;-81
2021/05/02 00:15:05;;;;;;;5.90;2.85;;;;;;;;;;5090364;28;20464;-82
2021/05/02 00:17:33;;;;;;;6.20;2.97;;;;;;;;;;5072169;28;20046;-81
2021/05/02 00:20:00;;;;;;;6.68;3.05;;;;;;;;;;5092190;28;20042;-80
2021/05/02 00:22:26;;;;;;;6.97;3.33;;;;;;;;;;5082868;28;20025;-82
2021/05/02 00:24:52;;;;;;;6.23;3.37;;;;;;;;;;5085627;28;20594;-82
2021/05/02 00:27:18;;;;;;;5.57;3.17;;;;;;;;;;5080433;28;20079;-81
2021/05/02 00:29:44;;;;;;;4.80;2.90;;;;;;;;;;5078315;28;20417;-80
2021/05/02 00:32:10;;;;;;;5.32;2.95;;;;;;;;;;5083045;28;20062;-82
2021/05/02 00:34:38;;;;;;;8.43;3.25;;;;;;;;;;5091534;28;20374;-82
2021/05/02 00:37:04;;;;;;;8.60;3.45;;;;;;;;;;5091958;28;20016;-85
2021/05/02 00:39:31;;;;;;;5.22;2.88;;;;;;;;;;5091045;28;20024;-79
2021/05/02 00:41:58;;;;;;;6.40;2.80;;;;;;;;;;5071570;28;20501;-82
2021/05/02 00:44:24;;;;;;;5.85;2.85;;;;;;;;;;5071136;28;20265;-83
2021/05/02 00:46:52;;;;;;;5.30;2.60;;;;;;;;;;5080357;28;20032;-83
2021/05/02 00:49:41;;;;;;;6.22;3.13;;;;;;;;;;5091671;28;20405;-82
2021/05/02 00:52:30;;;;;;;7.60;3.00;;;;;;;;;;5085665;28;20060;-82
2021/05/02 00:55:07;;;;;;;6.40;3.20;;;;;;;;;;5082589;28;20033;-83
2021/05/02 00:57:39;;;;;;;6.57;3.00;;;;;;;;;;5076618;28;20027;-84
2021/05/02 01:00:05;;;;;;;6.22;3.10;;;;;;;;;;5071217;28;20056;-84
2021/05/02 01:02:34;;;;;;;8.10;3.05;;;;;;;;;;5078710;28;20028;-83
2021/05/02 01:05:02;;;;;;;5.20;3.15;;;;;;;;;;5090692;28;20070;-83
2021/05/02 01:07:34;;;;;;;6.07;3.20;;;;;;;;;;5089597;28;20382;-82
2021/05/02 01:10:04;;;;;;;6.65;3.25;;;;;;;;;;5073575;28;20059;-82
2021/05/02 01:12:30;;;;;;;7.25;3.35;;;;;;;;;;5078148;28;20037;-82
2021/05/02 01:14:58;;;;;;;6.72;3.00;;;;;;;;;;5090738;28;20058;-83
2021/05/02 01:17:25;;;;;;;5.75;3.05;;;;;;;;;;5087385;28;20115;-82
2021/05/02 01:19:52;;;;;;;5.60;3.05;;;;;;;;;;5070401;28;20021;-82
2021/05/02 01:22:19;;;;;;;7.53;3.30;;;;;;;;;;5083812;28;20033;-83
2021/05/02 01:24:50;;;;;;;6.13;3.30;;;;;;;;;;5078198;28;20130;-84
2021/05/02 01:27:34;;;;;;;4.55;2.97;;;;;;;;;;5088333;28;20054;-83
2021/05/02 01:30:01;;;;;;;6.72;2.85;;;;;;;;;;5070633;28;20039;-81
2021/05/02 01:32:29;;;;;;;6.82;3.10;;;;;;;;;;5070749;28;20033;-82
2021/05/02 01:34:56;;;;;;;4.82;2.80;;;;;;;;;;5070830;28;20032;-82
2021/05/02 01:37:22;;;;;;;6.95;3.20;;;;;;;;;;5070427;28;20067;-84
2021/05/02 01:39:49;;;;;;;6.25;3.08;;;;;;;;;;5087948;28;20059;-82
2021/05/02 01:42:15;;;;;;;7.85;3.20;;;;;;;;;;5070190;28;20425;-84
2021/05/02 01:44:41;;;;;;;6.00;3.03;;;;;;;;;;5085654;28;20135;-82
2021/05/02 01:47:09;;;;;;;8.80;3.40;;;;;;;;;;5081864;28;20363;-85
2021/05/02 01:49:36;;;;;;;7.90;3.17;;;;;;;;;;5071722;28;20028;-82
2021/05/02 01:52:02;;;;;;;4.40;2.42;;;;;;;;;;5076007;28;20034;-81
2021/05/02 01:54:28;;;;;;;4.47;2.65;;;;;;;;;;5070180;28;20025;-83
2021/05/02 01:56:54;;;;;;;5.77;3.23;;;;;;;;;;5073083;28;20044;-83
2021/05/02 01:59:23;;;;;;;5.85;2.95;;;;;;;;;;5073727;28;20043;-82
2021/05/02 02:01:49;;;;;;;5.65;2.80;;;;;;;;;;5070957;28;20059;-84
2021/05/02 02:04:15;;;;;;;4.63;2.60;;;;;;;;;;5082149;28;20106;-82
2021/05/02 02:06:42;;;;;;;6.38;3.03;;;;;;;;;;5089170;28;20284;-82
2021/05/02 02:09:09;;;;;;;9.30;3.38;;;;;;;;;;5075403;28;20043;-85
2021/05/02 02:11:36;;;;;;;5.75;3.03;;;;;;;;;;5070818;28;20028;-84
2021/05/02 02:14:02;;;;;;;5.95;2.67;;;;;;;;;;5075087;28;20012;-84
2021/05/02 02:16:28;;;;;;;5.23;2.70;;;;;;;;;;5090088;28;20051;-82
2021/05/02 02:18:55;;;;;;;6.75;2.80;;;;;;;;;;5077934;28;20029;-83
2021/05/02 02:21:22;;;;;;;5.55;2.90;;;;;;;;;;5070655;28;20070;-82
2021/05/02 02:23:52;;;;;;;5.38;2.70;;;;;;;;;;5070113;28;20124;-83
2021/05/02 02:26:28;;;;;;;6.57;2.70;;;;;;;;;;5083289;28;20105;-82
2021/05/02 02:28:54;;;;;;;7.20;2.78;;;;;;;;;;5089270;28;20032;-83
2021/05/02 02:31:21;;;;;;;5.97;2.72;;;;;;;;;;5094206;28;20056;-82
2021/05/02 02:33:47;;;;;;;5.65;2.92;;;;;;;;;;5093022;28;20550;-83
2021/05/02 02:36:14;;;;;;;5.70;2.78;;;;;;;;;;5092883;28;20107;-84
2021/05/02 02:38:41;;;;;;;6.78;2.88;;;;;;;;;;5083211;28;20120;-84
2021/05/02 02:41:07;;;;;;;4.40;2.40;;;;;;;;;;5074627;28;20038;-83
2021/05/02 02:43:37;;;;;;;5.80;2.92;;;;;;;;;;5073550;28;20031;-84
2021/05/02 02:46:05;;;;;;;4.40;2.42;;;;;;;;;;5073574;28;20495;-84
2021/05/02 02:48:31;;;;;;;5.03;2.60;;;;;;;;;;5081594;28;20044;-83
2021/05/02 02:50:58;;;;;;;6.55;2.55;;;;;;;;;;5092837;28;20024;-84
2021/05/02 02:53:25;;;;;;;8.43;2.60;;;;;;;;;;5093228;28;20525;-85
2021/05/02 02:56:03;;;;;;;3.85;2.33;;;;;;;;;;5090792;28;20032;-83
2021/05/02 02:58:33;;;;;;;5.72;2.90;;;;;;;;;;5084494;28;20044;-84
2021/05/02 03:01:00;;;;;;;4.78;2.42;;;;;;;;;;5088404;28;20032;-83
2021/05/02 03:03:26;;;;;;;;;;;;;;;;;;5080592;28;20031;-84
2021/05/02 03:05:55;;;;;;;4.75;2.60;;;;;;;;;;5073116;28;19916;-82
2021/05/02 03:08:23;;;;;;;4.93;2.60;;;;;;;;;;5071255;28;20032;-81
2021/05/02 03:10:50;;;;;;;5.45;2.90;;;;;;;;;;5077389;28;20409;-85
2021/05/02 03:13:16;;;;;;;5.18;2.33;;;;;;;;;;5079708;28;20066;-83
2021/05/02 03:15:42;;;;;;;4.65;2.50;;;;;;;;;;5072841;28;20107;-82
2021/05/02 03:18:14;;;;;;;5.77;2.90;;;;;;;;;;5084875;28;20142;-83
2021/05/02 03:20:46;;;;;;;5.93;2.50;;;;;;;;;;5080143;28;20513;-84
2021/05/02 03:23:13;;;;;;;10.57;2.50;;;;;;;;;;5093378;28;20154;-83
2021/05/02 03:25:39;;;;;;;;;;;;;;;;;;5086732;28;20074;-80
2021/05/02 03:28:08;;;;;;;4.88;2.83;;;;;;;;;;5089064;28;19936;-83
2021/05/02 03:30:34;;;;;;;5.03;2.25;;;;;;;;;;5085969;28;20079;-84
2021/05/02 03:33:02;;;;;;;5.72;2.40;;;;;;;;;;5086383;28;20528;-83
2021/05/02 03:35:33;;;;;;;16.67;3.10;;;;;;;;;;5074143;28;20068;-83
2021/05/02 03:38:22;;;;;;;3.90;2.28;;;;;;;;;;5081624;28;20111;-81
2021/05/02 03:40:49;;;;;;;6.28;2.50;;;;;;;;;;5090560;28;20134;-83
2021/05/02 03:43:14;;;;;;;;;;;;;;;;;;5083117;28;20040;-82
2021/05/02 03:45:40;;;;;;;5.93;2.58;;;;;;;;;;5072248;28;19916;-82
2021/05/02 03:48:07;;;;;;;3.80;2.20;;;;;;;;;;5076699;28;20540;-84
2021/05/02 03:50:33;;;;;;;4.13;2.35;;;;;;;;;;5071890;28;20142;-83
2021/05/02 03:53:03;;;;;;;4.70;2.50;;;;;;;;;;5076792;28;20812;-83
2021/05/02 03:55:29;;;;;;;3.72;2.20;;;;;;;;;;5086948;28;20042;-83
2021/05/02 03:57:55;;;;;;;6.13;2.40;;;;;;;;;;5072062;28;20661;-83
2021/05/02 04:00:21;;;;;;;4.60;2.53;;;;;;;;;;5071858;28;20028;-82
2021/05/02 04:02:47;;;;;;;4.63;2.60;;;;;;;;;;5078179;28;20355;-83
2021/05/02 04:05:13;;;;;;;3.08;2.13;;;;;;;;;;5084441;28;20294;-82
2021/05/02 04:07:39;;;;;;;11.25;2.67;;;;;;;;;;5071960;28;20040;-81
2021/05/02 04:10:06;;;;;;;4.00;2.60;;;;;;;;;;5071145;28;20769;-84
2021/05/02 04:12:32;;;;;;;5.38;2.47;;;;;;;;;;5073243;28;20090;-82
2021/05/02 04:14:58;;;;;;;4.80;2.40;;;;;;;;;;5072509;28;20369;-84
2021/05/02 04:17:24;;;;;;;4.90;2.37;;;;;;;;;;5072059;28;20262;-83
2021/05/02 04:19:52;;;;;;;4.57;2.30;;;;;;;;;;5077064;28;20345;-84
2021/05/02 04:22:18;;;;;;;4.55;2.35;;;;;;;;;;5088241;28;20039;-82
2021/05/02 04:24:46;;;;;;;4.45;2.60;;;;;;;;;;5076482;28;20050;-82
2021/05/02 04:27:12;;;;;;;3.25;2.20;;;;;;;;;;5088513;28;20028;-83
2021/05/02 04:29:39;;;;;;;3.58;2.30;;;;;;;;;;5091355;28;20051;-82
2021/05/02 04:32:05;;;;;;;5.10;2.58;;;;;;;;;;5078941;28;20145;-83
2021/05/02 04:34:31;;;;;;;2.85;1.92;;;;;;;;;;5089676;28;20052;-83
2021/05/02 04:36:57;;;;;;;5.50;2.17;;;;;;;;;;5090936;28;20541;-84
2021/05/02 04:39:23;;;;;;;5.32;2.53;;;;;;;;;;5089456;28;20017;-82
2021/05/02 04:41:50;;;;;;;6.55;2.35;;;;;;;;;;5078502;28;20032;-82
2021/05/02 04:44:16;;;;;;;3.60;2.22;;;;;;;;;;5071769;28;20024;-82
2021/05/02 04:46:42;;;;;;;5.03;2.33;;;;;;;;;;5071414;28;20033;-83
2021/05/02 04:49:09;;;;;;;3.35;2.05;;;;;;;;;;5086791;28;20034;-83
2021/05/02 04:51:35;;;;;;;;;;;;;;;;;;5085278;28;20039;-83
2021/05/02 04:54:01;;;;;;;3.03;2.10;;;;;;;;;;5076345;28;19919;-82
2021/05/02 04:56:27;;;;;;;2.75;2.20;;;;;;;;;;5084497;28;20441;-83
2021/05/02 04:58:53;;;;;;;3.97;2.30;;;;;;;;;;5071140;28;20024;-83
2021/05/02 05:01:19;;;;;;;6.03;2.10;;;;;;;;;;5074873;28;20040;-83
2021/05/02 05:03:45;;;;;;;4.15;2.20;;;;;;;;;;5071956;28;20040;-85
2021/05/02 05:06:12;;;;;;;4.40;2.25;;;;;;;;;;5082370;28;20512;-84
2021/05/02 05:08:38;;;;;;;2.75;1.90;;;;;;;;;;5075008;28;20028;-84
2021/05/02 05:11:04;;;;;;;5.10;1.90;;;;;;;;;;5088738;28;20028;-82
2021/05/02 05:13:30;;;;;;;2.67;1.90;;;;;;;;;;5085985;28;20036;-82
2021/05/02 05:15:57;;;;;;;5.10;2.08;;;;;;;;;;5072380;28;20768;-84
2021/05/02 05:18:23;;;;;;;;;;;;;;;;;;5090180;28;20169;-83
2021/05/02 05:20:49;;;;;;;3.60;1.92;;;;;;;;;;5070329;28;20417;-83
2021/05/02 05:23:16;;;;;;;2.90;2.00;;;;;;;;;;5082489;28;20020;-83
2021/05/02 05:25:42;;;;;;;3.08;1.95;;;;;;;;;;5083403;28;20054;-84
2021/05/02 05:28:08;;;;;;;4.23;2.10;;;;;;;;;;5073334;28;20103;-85
2021/05/02 05:30:34;;;;;;;2.70;1.67;;;;;;;;;;5073848;28;20270;-83
2021/05/02 05:33:01;;;;;;;1.50;1.40;;;;;;;;;;5072469;28;20025;-81
2021/05/02 05:35:27;;;;;;;1.00;1.00;;;;;;;;;;5071567;28;20041;-78
2021/05/02 05:37:53;;;;;;;2.33;1.15;;;;;;;;;;5075244;28;20029;-82
2021/05/02 05:40:19;;;;;;;1.20;1.10;;;;;;;;;;5071145;28;20399;-80
2021/05/02 05:42:48;;;;;;;3.20;1.00;;;;;;;;;;5071439;28;20278;-80
2021/05/02 05:45:18;;;;;;;0.93;0.68;;;;;;;;;;5070162;28;20661;-82
2021/05/02 05:47:44;;;;;;;0.60;0.60;;;;;;;;;;5069976;28;20115;-81
2021/05/02 05:50:13;;;;;;;0.70;0.70;;;;;;;;;;5070728;28;20097;-81
2021/05/02 05:52:39;;;;;;;1.58;0.90;;;;;;;;;;5076101;28;20050;-79
2021/05/02 05:55:06;;;;;;;0.98;0.95;;;;;;;;;;5081003;28;20500;-81
2021/05/02 05:57:32;;;;;;;;;;;;;;;;;;5071094;28;20413;-80
2021/05/02 05:59:58;;;;;;;5.85;1.67;;;;;;;;;;5070924;28;19904;-83
2021/05/02 06:02:23;;;;;;;3.90;1.50;;;;;;;;;;5085700;28;20020;-80
2021/05/02 06:04:49;;;;;;;2.30;1.60;;;;;;;;;;5094127;28;20478;-79
2021/05/02 06:07:15;;;;;;;4.50;1.67;;;;;;;;;;5079745;28;20087;-82
2021/05/02 06:09:41;;;;;;;4.20;1.60;;;;;;;;;;5087688;28;20028;-81
2021/05/02 06:12:08;;;;;;;2.10;1.53;;;;;;;;;;5100773;28;20043;-82
2021/05/02 06:14:34;;;;;;;6.72;1.45;;;;;;;;;;5090408;28;20063;-81
2021/05/02 06:16:59;;;;;;;3.13;1.23;;;;;;;;;;5074368;28;20094;-81
2021/05/02 06:19:27;;;;;;;4.43;1.30;;;;;;;;;;5074606;28;20029;-81
2021/05/02 06:21:53;;;;;;;1.70;1.25;;;;;;;;;;5072633;28;20372;-81
2021/05/02 06:24:19;;;;;;;3.53;1.30;;;;;;;;;;5083275;28;20022;-80
2021/05/02 06:26:45;;;;;;;2.97;2.10;;;;;;;;;;5086247;28;20036;-79
2021/05/02 06:29:11;;;;;;;3.22;1.90;;;;;;;;;;5083594;28;20111;-80
2021/05/02 06:31:40;;;;;;;5.67;1.90;;;;;;;;;;5084769;28;20121;-83
2021/05/02 06:34:06;;;;;;;4.65;1.60;;;;;;;;;;5080894;28;20016;-83
2021/05/02 06:36:32;;;;;;;1.70;1.60;;;;;;;;;;5090759;28;20115;-85
2021/05/02 06:38:58;;;;;;;2.33;1.60;;;;;;;;;;5085733;28;20794;-84
2021/05/02 06:41:24;;;;;;;2.67;1.50;;;;;;;;;;5076171;28;20029;-83
2021/05/02 06:43:50;;;;;;;2.13;1.40;;;;;;;;;;5085109;28;20356;-83
2021/05/02 06:46:30;;;;;;;3.23;1.40;;;;;;;;;;5080009;28;20119;-86
2021/05/02 06:49:01;;;;;;;2.65;1.48;;;;;;;;;;5078406;28;20052;-85
2021/05/02 06:51:28;;;;;;;5.30;1.30;;;;;;;;;;5081255;28;20032;-82
2021/05/02 06:53:57;;;;;;;5.75;1.33;;;;;;;;;;5085121;28;20056;-83
2021/05/02 06:56:24;;;;;;;2.20;1.20;;;;;;;;;;5083004;28;20036;-83
2021/05/02 06:58:55;;;;;;;3.45;1.30;;;;;;;;;;5082894;28;20340;-87
2021/05/02 07:01:21;;;;;;;13.40;1.88;;;;;;;;;;5078919;28;20025;-86
2021/05/02 07:03:47;;;;;;;10.73;1.45;;;;;;;;;;5079814;28;20029;-84
2021/05/02 07:06:13;;;;;;;8.20;2.50;;;;;;;;;;5091960;28;20024;-84
2021/05/02 07:08:40;;;;;;;2.13;1.20;;;;;;;;;;5083382;28;20050;-84
2021/05/02 07:11:06;;;;;;;5.82;1.38;;;;;;;;;;5079713;28;20012;-84
2021/05/02 07:13:32;;;;;;;4.00;1.10;;;;;;;;;;5087848;28;20284;-86
2021/05/02 07:15:59;;;;;;;5.30;1.27;;;;;;;;;;5075499;28;20391;-85
2021/05/02 07:18:29;;;;;;;5.28;1.38;;;;;;;;;;5076130;28;20048;-86
2021/05/02 07:20:55;;;;;;;5.00;1.20;;;;;;;;;;5090855;28;20020;-85
2021/05/02 07:23:21;;;;;;;3.40;1.30;;;;;;;;;;5090478;28;20082;-85
2021/05/02 07:25:47;;;;;;;3.40;1.10;;;;;;;;;;5091197;28;20026;-83
2021/05/02 07:28:13;;;;;;;4.57;1.17;;;;;;;;;;5091279;28;20032;-84
2021/05/02 07:30:39;;;;;;;3.50;1.07;;;;;;;;;;5085586;28;20258;-83
2021/05/02 07:33:05;;;;;;;9.52;1.40;;;;;;;;;;5072634;28;20023;-83
2021/05/02 07:35:31;;;;;;;2.90;1.17;;;;;;;;;;5072270;28;20033;-85
2021/05/02 07:37:57;;;;;;;3.78;1.10;;;;;;;;;;5072436;28;20020;-84
2021/05/02 07:40:24;;;;;;;4.00;1.00;;;;;;;;;;5072324;28;20785;-83
2021/05/02 07:42:50;;;;;;;3.50;0.98;;;;;;;;;;5072430;28;20414;-86
2021/05/02 07:45:16;;;;;;;3.30;1.30;;;;;;;;;;5084072;28;20050;-82
2021/05/02 07:47:42;;;;;;;1.73;0.90;;;;;;;;;;5113358;28;20502;-80
2021/05/02 07:50:08;;;;;;;22.33;2.05;;;;;;;;;;5112074;28;20023;-80
2021/05/02 07:52:34;;;;;;;26.08;2.15;;;;;;;;;;5113041;28;20485;-80
2021/05/02 07:55:00;;;;;;;14.95;2.15;;;;;;;;;;5112342;28;20023;-81
2021/05/02 07:57:26;;;;;;;12.30;1.43;;;;;;;;;;5098972;28;20054;-82
2021/05/02 07:59:52;;;;;;;11.00;1.63;;;;;;;;;;5092739;28;20707;-83
2021/05/02 08:02:20;;;;;;;20.52;2.13;;;;;;;;;;5100222;28;20428;-81
2021/05/02 08:04:46;;;;;;;5.97;1.35;;;;;;;;;;5100766;28;20098;-83
2021/05/02 08:07:12;;;;;;;13.37;1.80;;;;;;;;;;5101889;28;20438;-82
2021/05/02 08:09:38;;;;;;;5.80;1.30;;;;;;;;;;5101663;28;20281;-84
2021/05/02 08:12:05;;;;;;;9.25;1.40;;;;;;;;;;5102184;28;20309;-81
2021/05/02 08:14:31;;;;;;;3.03;0.80;;;;;;;;;;5101819;28;20046;-85
2021/05/02 08:16:57;;;;;;;11.85;1.50;;;;;;;;;;5098565;28;20032;-83
2021/05/02 08:19:23;;;;;;;9.60;1.33;;;;;;;;;;5099631;28;20059;-82
2021/05/02 08:21:49;;;;;;;8.57;1.30;;;;;;;;;;5101186;28;20045;-82
2021/05/02 08:24:15;;;;;;;5.70;0.95;;;;;;;;;;5102113;28;20032;-81
2021/05/02 08:26:42;;;;;;;7.20;1.50;;;;;;;;;;5098773;28;20530;-79
2021/05/02 08:29:08;;;;;;;34.03;2.15;;;;;;;;;;5097069;28;20107;-83
2021/05/02 08:31:35;;;;;;;8.13;1.48;;;;;;;;;;5097174;28;20055;-85
2021/05/02 08:34:01;;;;;;;9.45;1.30;;;;;;;;;;5098446;28;20031;-79
2021/05/02 08:36:27;;;;;;;2.60;1.10;;;;;;;;;;5101345;28;20040;-82
2021/05/02 08:38:53;;;;;;;4.97;0.98;;;;;;;;;;5098967;28;20031;-80
2021/05/02 08:41:19;;;;;;;3.22;0.80;;;;;;;;;;5096818;28;20134;-79
2021/05/02 08:43:50;;;;;;;7.50;1.20;;;;;;;;;;5099821;28;20665;-82
2021/05/02 08:46:16;;;;;;;8.00;1.35;;;;;;;;;;5095468;28;20044;-81
2021/05/02 08:48:42;;;;;;;3.67;1.00;;;;;;;;;;5077615;28;20024;-84
2021/05/02 08:51:08;;;;;;;8.23;0.87;;;;;;;;;;5077926;28;20312;-84
2021/05/02 08:53:34;;;;;;;7.47;1.20;;;;;;;;;;5079931;28;20027;-81
2021/05/02 08:56:01;;;;;;;10.77;1.30;;;;;;;;;;5078678;28;20032;-81
2021/05/02 08:58:27;;;;;;;3.30;0.70;;;;;;;;;;5073739;28;20486;-81
2021/05/02 09:00:56;;;;;;;1.37;0.80;;;;;;;;;;5082401;28;20040;-81
2021/05/02 09:03:38;;;;;;;7.68;1.25;;;;;;;;;;5080971;28;20458;-81
2021/05/02 09:06:13;;;;;;;3.17;1.00;;;;;;;;;;5082248;28;20413;-83
2021/05/02 09:08:39;;;;;;;1.10;0.80;;;;;;;;;;5079963;28;20029;-83
2021/05/02 09:11:05;;;;;;;3.90;0.73;;;;;;;;;;5081432;28;20058;-81
2021/05/02 09:13:31;;;;;;;2.53;0.47;;;;;;;;;;5082479;28;20865;-80
2021/05/02 09:15:59;;;;;;;5.07;0.70;;;;;;;;;;5076391;28;20155;-81
2021/05/02 09:18:39;;;;;;;3.42;0.65;;;;;;;;;;5094132;28;20465;-81
2021/05/02 09:21:06;;;;;;;2.28;0.68;;;;;;;;;;5075378;28;20051;-78
2021/05/02 09:23:36;;;;;;;3.58;0.60;;;;;;;;;;5082582;28;20027;-79
2021/05/02 09:26:04;;;;;;;0.55;0.55;;;;;;;;;;5080865;28;20038;-81
2021/05/02 09:28:43;;;;;;;4.28;0.93;;;;;;;;;;5080090;28;20146;-77
2021/05/02 09:31:09;;;;;;;1.75;0.70;;;;;;;;;;5079802;28;20043;-77
2021/05/02 09:33:36;;;;;;;0.70;0.70;;;;;;;;;;5076472;28;20127;-78
2021/05/02 09:36:03;;;;;;;1.80;0.57;;;;;;;;;;5072643;28;20044;-78
2021/05/02 09:38:29;;;;;;;;;;;;;;;;;;5081673;28;20034;-77
2021/05/02 09:40:56;;;;;;;0.93;0.50;;;;;;;;;;5074517;28;19909;-79
2021/05/02 09:43:48;;;;;;;0.60;0.60;;;;;;;;;;5080876;28;20368;-78
2021/05/02 09:46:25;;;;;;;0.45;0.32;;;;;;;;;;5072377;28;20042;-78
2021/05/02 09:48:52;;;;;;;0.60;0.60;;;;;;;;;;5084223;28;20140;-78
2021/05/02 09:51:21;;;;;;;;;;;;;;;;;;5084901;28;20445;-78
2021/05/02 09:54:00;;;;;;;0.47;0.47;;;;;;;;;;5084569;28;20364;-77
2021/05/02 09:56:31;;;;;;;0.55;0.45;;;;;;;;;;5080605;28;20044;-76
2021/05/02 09:58:57;;;;;;;1.33;0.80;;;;;;;;;;5080998;28;20371;-79
2021/05/02 10:01:23;;;;;;;1.50;0.40;;;;;;;;;;5074849;28;20184;-79
2021/05/02 10:03:53;;;;;;;0.43;0.43;;;;;;;;;;5077682;28;20737;-78
2021/05/02 10:06:29;;;;;;;0.85;0.75;;;;;;;;;;5078992;28;20095;-78
2021/05/02 10:08:55;;;;;;;0.80;0.47;;;;;;;;;;5079801;28;20051;-77
2021/05/02 10:11:24;;;;;;;0.80;0.80;;;;;;;;;;5080595;28;20050;-78
2021/05/02 10:13:50;;;;;;;1.13;0.60;;;;;;;;;;5083720;28;20089;-78
2021/05/02 10:16:16;;;;;;;2.60;0.47;;;;;;;;;;5078844;28;20458;-78
2021/05/02 10:18:42;;;;;;;0.65;0.50;;;;;;;;;;5080895;28;20030;-80
2021/05/02 10:21:09;;;;;;;1.30;0.70;;;;;;;;;;5078915;28;20024;-78
2021/05/02 10:23:38;;;;;;;1.55;0.77;;;;;;;;;;5077113;28;20110;-79
2021/05/02 10:26:05;;;;;;;1.20;0.90;;;;;;;;;;5072412;28;20047;-78
2021/05/02 10:28:33;;;;;;;0.57;0.57;;;;;;;;;;5074699;28;20063;-81
2021/05/02 10:31:01;;;;;;;0.47;0.47;;;;;;;;;;5078424;28;20159;-80
2021/05/02 10:33:33;;;;;;;0.82;0.60;;;;;;;;;;5080171;28;20122;-80
2021/05/02 10:36:00;;;;;;;0.60;0.60;;;;;;;;;;5082182;28;20040;-80
2021/05/02 10:38:46;;;;;;;1.63;0.80;;;;;;;;;;5079068;28;20054;-77
2021/05/02 10:41:27;;;;;;;1.00;0.57;;;;;;;;;;5074054;28;20021;-79
2021/05/02 10:43:53;;;;;;;0.77;0.57;;;;;;;;;;5080683;28;20040;-81
2021/05/02 10:46:38;;;;;;;2.80;0.38;;;;;;;;;;5077348;28;20036;-81
2021/05/02 10:49:04;;;;;;;0.88;0.60;;;;;;;;;;5078944;28;20108;-77
2021/05/02 10:51:31;;;;;;;0.50;0.50;;;;;;;;;;5081644;28;20111;-78
2021/05/02 10:53:57;;;;;;;;;;;;;;;;;;5080655;28;20021;-79
2021/05/02 10:56:40;;;;;;;2.03;0.77;;;;;;;;;;5086267;28;19916;-79
2021/05/02 10:59:06;;;;;;;0.70;0.60;;;;;;;;;;5081264;28;20055;-76
2021/05/02 11:01:32;;;;;;;2.03;0.50;;;;;;;;;;5084650;28;20028;-75
2021/05/02 11:03:59;;;;;;;2.20;0.50;;;;;;;;;;5081122;28;20501;-77
2021/05/02 11:06:40;;;;;;;0.65;0.45;;;;;;;;;;5081212;28;20139;-78
2021/05/02 11:09:06;;;;;;;0.75;0.60;;;;;;;;;;5081989;28;20582;-78
2021/05/02 11:11:37;;;;;;;0.57;0.57;;;;;;;;;;5079530;28;20475;-78
2021/05/02 11:16:41;;;;;;;0.65;0.55;;;;;;;;;;5080528;28;20075;-78
2021/05/02 11:19:08;;;;;;;0.88;0.63;;;;;;;;;;5081646;28;20111;-77
2021/05/02 11:21:49;;;;;;;1.00;0.85;;;;;;;;;;5081846;28;20044;-77
2021/05/02 11:24:34;;;;;;;2.08;0.65;;;;;;;;;;5086109;28;20020;-77
2021/05/02 11:32:33;;;;;;;1.70;0.52;;;;;;;;;;5084246;28;20556;-78
2021/05/02 11:35:01;;;;;;;0.55;0.52;;;;;;;;;;5077165;28;20122;-76
2021/05/02 11:37:37;;;;;;;0.35;0.35;;;;;;;;;;5088417;28;20369;-77
2021/05/02 11:40:18;;;;;;;0.60;0.60;;;;;;;;;;5080192;28;20094;-79
2021/05/02 11:42:52;;;;;;;0.93;0.45;;;;;;;;;;5082686;28;20493;-81
2021/05/02 11:45:22;;;;;;;2.00;0.85;;;;;;;;;;5079883;28;20033;-82
2021/05/02 11:47:48;;;;;;;0.98;0.55;;;;;;;;;;5079087;28;20036;-75
2021/05/02 11:50:15;;;;;;;1.95;1.00;;;;;;;;;;5090486;28;20488;-75
2021/05/02 11:52:47;;;;;;;0.88;0.88;;;;;;;;;;5082416;28;20028;-77
2021/05/02 11:55:26;;;;;;;1.30;0.73;;;;;;;;;;5080415;28;20036;-78
2021/05/02 11:57:53;;;;;;;1.85;1.05;;;;;;;;;;5080651;28;20502;-76
2021/05/02 12:00:32;;;;;;;2.78;0.60;;;;;;;;;;5078693;28;20042;-79
2021/05/02 12:02:58;;;;;;;1.88;0.50;;;;;;;;;;5080646;28;20382;-78
2021/05/02 12:05:24;;;;;;;1.80;0.80;;;;;;;;;;5080322;28;20028;-78
2021/05/02 12:08:06;;;;;;;0.53;0.53;;;;;;;;;;5080963;28;20119;-78
2021/05/02 12:10:32;;;;;;;0.80;0.50;;;;;;;;;;5079888;28;20024;-78
2021/05/02 12:12:58;;;;;;;1.00;0.50;;;;;;;;;;5079673;28;20032;-78
2021/05/02 12:15:24;;;;;;;0.63;0.43;;;;;;;;;;5082466;28;20085;-78
2021/05/02 12:17:53;;;;;;;0.93;0.70;;;;;;;;;;5077442;28;20047;-77
2021/05/02 12:20:26;;;;;;;1.85;0.70;;;;;;;;;;5077276;28;20390;-76
2021/05/02 12:22:54;;;;;;;0.93;0.60;;;;;;;;;;5081564;28;20033;-76
2021/05/02 12:25:21;;;;;;;2.95;0.60;;;;;;;;;;5084169;28;20020;-79
2021/05/02 12:27:57;;;;;;;1.30;0.57;;;;;;;;;;5072764;28;20041;-77
2021/05/02 12:30:23;;;;;;;3.97;0.75;;;;;;;;;;5075447;28;20028;-78
2021/05/02 12:32:49;;;;;;;0.75;0.75;;;;;;;;;;5080290;28;20072;-78
2021/05/02 12:35:15;;;;;;;3.73;0.77;;;;;;;;;;5085811;28;20024;-78
2021/05/02 12:37:41;;;;;;;0.80;0.47;;;;;;;;;;5074312;28;20332;-78
2021/05/02 12:40:08;;;;;;;0.83;0.47;;;;;;;;;;5082878;28;20270;-77
2021/05/02 12:42:35;;;;;;;0.75;0.52;;;;;;;;;;5078684;28;20539;-78
2021/05/02 12:45:00;;;;;;;;;;;;;;;;;;5079507;28;20359;-78
2021/05/02 12:47:27;;;;;;;1.13;1.00;;;;;;;;;;5078907;28;19923;-79
2021/05/02 12:49:53;;;;;;;;;;;;;;;;;;5081731;28;20077;-80
2021/05/02 12:52:20;;;;;;;0.50;0.50;;;;;;;;;;5082292;28;19912;-78
2021/05/02 12:54:45;;;;;;;1.90;0.63;;;;;;;;;;5078024;28;20129;-80
2021/05/02 12:57:16;;;;;;;1.85;0.70;;;;;;;;;;5088598;28;20343;-79
2021/05/02 12:59:46;;;;;;;1.05;0.60;;;;;;;;;;5081179;28;20134;-79
2021/05/02 13:02:15;;;;;;;0.95;0.60;;;;;;;;;;5082864;28;20055;-77
2021/05/02 13:04:45;;;;;;;2.92;0.65;;;;;;;;;;5085307;28;20413;-77
2021/05/02 13:07:12;;;;;;;1.48;0.40;;;;;;;;;;5083575;28;20177;-80
2021/05/02 13:09:39;;;;;;;1.17;0.45;;;;;;;;;;5076312;28;20393;-78
2021/05/02 13:12:06;;;;;;;1.48;0.50;;;;;;;;;;5078930;28;20060;-77
2021/05/02 13:14:33;;;;;;;3.55;0.90;;;;;;;;;;5082684;28;20020;-78
2021/05/02 13:16:59;;;;;;;5.57;1.17;;;;;;;;;;5072431;28;20046;-77
2021/05/02 13:19:32;;;;;;;1.95;0.85;;;;;;;;;;5069207;28;20413;-77
2021/05/02 13:22:13;;;;;;;1.15;0.60;;;;;;;;;;5070229;28;20424;-78
2021/05/02 13:24:59;;;;;;;1.02;0.60;;;;;;;;;;5083573;28;20032;-77
2021/05/02 13:27:35;;;;;;;0.40;0.40;;;;;;;;;;5085212;28;20031;-78
2021/05/02 13:30:02;;;;;;;3.75;0.82;;;;;;;;;;5069797;28;20143;-77
2021/05/02 13:32:28;;;;;;;5.97;0.82;;;;;;;;;;5070151;28;20064;-77
2021/05/02 13:34:54;;;;;;;3.63;0.73;;;;;;;;;;5085827;28;20059;-77
2021/05/02 13:37:20;;;;;;;0.80;0.60;;;;;;;;;;5087753;28;20032;-77
2021/05/02 13:39:46;;;;;;;2.42;0.70;;;;;;;;;;5088377;28;20036;-76
2021/05/02 13:42:12;;;;;;;0.63;0.40;;;;;;;;;;5086888;28;20062;-77
2021/05/02 13:44:38;;;;;;;0.70;0.60;;;;;;;;;;5069495;28;20036;-75
2021/05/02 13:47:04;;;;;;;2.13;0.90;;;;;;;;;;5073036;28;20155;-77
2021/05/02 13:49:30;;;;;;;0.98;0.60;;;;;;;;;;5075376;28;20066;-77
2021/05/02 13:51:56;;;;;;;0.60;0.60;;;;;;;;;;5077178;28;20029;-78
2021/05/02 13:54:22;;;;;;;7.20;1.25;;;;;;;;;;5078053;28;20043;-79
2021/05/02 13:56:48;;;;;;;12.20;1.80;;;;;;;;;;5082002;28;20044;-75
2021/05/02 13:59:14;;;;;;;7.53;1.38;;;;;;;;;;5079660;28;20500;-78
2021/05/02 14:01:41;;;;;;;12.83;1.57;;;;;;;;;;5074087;28;20028;-78
2021/05/02 14:04:07;;;;;;;5.18;1.20;;;;;;;;;;5073614;28;20032;-74
2021/05/02 14:06:33;;;;;;;6.30;1.00;;;;;;;;;;5081406;28;20036;-79
2021/05/02 14:09:00;;;;;;;2.73;0.90;;;;;;;;;;5073023;28;20270;-75
2021/05/02 14:11:26;;;;;;;3.15;0.73;;;;;;;;;;5075880;28;20067;-77
2021/05/02 14:13:53;;;;;;;3.00;0.75;;;;;;;;;;5082663;28;20574;-76
2021/05/02 14:16:19;;;;;;;2.05;0.63;;;;;;;;;;5082703;28;20084;-77
2021/05/02 14:18:45;;;;;;;0.73;0.73;;;;;;;;;;5076853;28;20111;-77
2021/05/02 14:21:11;;;;;;;2.30;0.80;;;;;;;;;;5078850;28;20037;-77
2021/05/02 14:23:37;;;;;;;2.97;0.50;;;;;;;;;;5083739;28;20060;-76
2021/05/02 14:26:04;;;;;;;2.17;0.90;;;;;;;;;;5084652;28;20401;-76
2021/05/02 14:28:30;;;;;;;3.42;0.80;;;;;;;;;;5081553;28;20044;-76
2021/05/02 14:30:56;;;;;;;1.85;0.65;;;;;;;;;;5081386;28;20029;-75
2021/05/02 14:33:23;;;;;;;3.53;0.60;;;;;;;;;;5083843;28;20735;-76
2021/05/02 14:35:49;;;;;;;0.80;0.68;;;;;;;;;;5084605;28;20532;-77
2021/05/02 14:38:15;;;;;;;0.93;0.60;;;;;;;;;;5083285;28;20032;-76
2021/05/02 14:40:42;;;;;;;0.40;0.40;;;;;;;;;;5081236;28;20398;-76
2021/05/02 14:43:08;;;;;;;0.68;0.52;;;;;;;;;;5080908;28;20305;-75
2021/05/02 14:45:34;;;;;;;1.67;0.80;;;;;;;;;;5084219;28;20494;-76
2021/05/02 14:48:00;;;;;;;1.38;0.60;;;;;;;;;;5084674;28;20284;-77
2021/05/02 14:50:26;;;;;;;1.40;0.70;;;;;;;;;;5082460;28;20024;-76
2021/05/02 14:52:53;;;;;;;2.27;0.80;;;;;;;;;;5081089;28;20033;-76
2021/05/02 14:55:19;;;;;;;0.65;0.65;;;;;;;;;;5081653;28;20029;-78
2021/05/02 14:57:45;;;;;;;0.85;0.60;;;;;;;;;;5084341;28;20110;-75